Monroeville, Ohio
Current Conditions -  °F | °C
As of 6:33 PM on Saturday 20 Dec 2014 (Local Time) from KPCW Reporting Station
Overcast Overcast  
Wind Chill: 34°   Ceiling: 2700
Heat Index: 34°   Visibility: 10mi
Dew Point: 25°   Wind: 0mph
Humidity: 70%   Direction: NA
Pressure: 30.27"   Gusts: NA
Location:  41.24°N, 82.7°W
Report Text: KPCW 202333Z AUTO 00000KT 10SM OVC027 01/M04 A3027 RMK AO2 $
Loading
Personal Weather Stations






























Interactive Weather Map New forecast layout! Learn more

10-Day Weather Forecast

Advertisements
Track Severe Weather on mobile